sensor_id;sensor_type;location;lat;lon;timestamp;pressure;altitude;pressure_sealevel;temperature;humidity
30081;BME280;16902;50.816;12.828;2023-05-03T00:00:42;98769.56;;;6.94;100.00
30081;BME280;16902;50.816;12.828;2023-05-03T00:05:43;98767.59;;;6.86;100.00
30081;BME280;16902;50.816;12.828;2023-05-03T00:10:46;98770.34;;;6.85;100.00
30081;BME280;16902;50.816;12.828;2023-05-03T00:15:48;98770.97;;;6.67;100.00
30081;BME280;16902;50.816;12.828;2023-05-03T00:20:51;98767.78;;;6.54;100.00
30081;BME280;16902;50.816;12.828;2023-05-03T00:25:56;98766.25;;;6.52;100.00
30081;BME280;16902;50.816;12.828;2023-05-03T00:31:05;98772.50;;;6.49;100.00
30081;BME280;16902;50.816;12.828;2023-05-03T00:36:12;98761.84;;;6.42;100.00
30081;BME280;16902;50.816;12.828;2023-05-03T00:41:15;98761.03;;;6.42;100.00
30081;BME280;16902;50.816;12.828;2023-05-03T00:46:17;98768.53;;;6.45;100.00
30081;BME280;16902;50.816;12.828;2023-05-03T00:51:19;98766.91;;;6.44;100.00
30081;BME280;16902;50.816;12.828;2023-05-03T00:56:22;98768.16;;;6.50;100.00
30081;BME280;16902;50.816;12.828;2023-05-03T01:01:24;98761.97;;;6.41;100.00
30081;BME280;16902;50.816;12.828;2023-05-03T01:17:14;98756.91;;;6.30;100.00
30081;BME280;16902;50.816;12.828;2023-05-03T01:22:36;98765.72;;;6.27;100.00
30081;BME280;16902;50.816;12.828;2023-05-03T01:27:40;98756.31;;;6.26;100.00
30081;BME280;16902;50.816;12.828;2023-05-03T01:38:09;98749.19;;;6.18;100.00
30081;BME280;16902;50.816;12.828;2023-05-03T01:43:14;98755.31;;;6.17;100.00
30081;BME280;16902;50.816;12.828;2023-05-03T01:48:18;98746.16;;;6.13;100.00
30081;BME280;16902;50.816;12.828;2023-05-03T01:53:20;98746.94;;;6.04;100.00
30081;BME280;16902;50.816;12.828;2023-05-03T01:58:22;98745.88;;;6.07;100.00
30081;BME280;16902;50.816;12.828;2023-05-03T02:03:23;98739.50;;;5.90;100.00
30081;BME280;16902;50.816;12.828;2023-05-03T02:08:25;98741.59;;;5.85;100.00
30081;BME280;16902;50.816;12.828;2023-05-03T02:13:27;98743.75;;;5.80;100.00
30081;BME280;16902;50.816;12.828;2023-05-03T02:18:29;98742.69;;;5.82;100.00
30081;BME280;16902;50.816;12.828;2023-05-03T02:23:32;98751.94;;;5.85;100.00
30081;BME280;16902;50.816;12.828;2023-05-03T02:28:33;98750.00;;;5.77;100.00
30081;BME280;16902;50.816;12.828;2023-05-03T02:33:36;98747.91;;;5.71;100.00
30081;BME280;16902;50.816;12.828;2023-05-03T02:38:38;98758.50;;;5.89;100.00
30081;BME280;16902;50.816;12.828;2023-05-03T02:43:40;98757.69;;;5.88;100.00
30081;BME280;16902;50.816;12.828;2023-05-03T02:48:42;98752.31;;;5.91;100.00
30081;BME280;16902;50.816;12.828;2023-05-03T02:53:45;98753.63;;;5.75;100.00
30081;BME280;16902;50.816;12.828;2023-05-03T02:58:47;98751.72;;;5.56;100.00
30081;BME280;16902;50.816;12.828;2023-05-03T03:03:49;98750.94;;;5.44;100.00
30081;BME280;16902;50.816;12.828;2023-05-03T03:08:51;98756.72;;;5.36;100.00
30081;BME280;16902;50.816;12.828;2023-05-03T03:13:53;98769.06;;;5.33;100.00
30081;BME280;16902;50.816;12.828;2023-05-03T03:19:00;98767.03;;;5.36;100.00
30081;BME280;16902;50.816;12.828;2023-05-03T03:24:03;98775.03;;;5.33;100.00
30081;BME280;16902;50.816;12.828;2023-05-03T03:29:05;98770.84;;;5.32;100.00
30081;BME280;16902;50.816;12.828;2023-05-03T03:34:08;98778.31;;;5.35;100.00
30081;BME280;16902;50.816;12.828;2023-05-03T03:39:10;98785.88;;;5.27;100.00
30081;BME280;16902;50.816;12.828;2023-05-03T03:44:13;98783.66;;;5.11;100.00
30081;BME280;16902;50.816;12.828;2023-05-03T03:49:15;98798.78;;;5.27;100.00
30081;BME280;16902;50.816;12.828;2023-05-03T03:54:17;98801.44;;;5.37;100.00
30081;BME280;16902;50.816;12.828;2023-05-03T03:59:22;98807.97;;;5.52;100.00
30081;BME280;16902;50.816;12.828;2023-05-03T04:04:25;98804.78;;;5.60;100.00
30081;BME280;16902;50.816;12.828;2023-05-03T04:09:29;98823.06;;;5.68;100.00
30081;BME280;16902;50.816;12.828;2023-05-03T04:14:31;98823.75;;;5.70;100.00
30081;BME280;16902;50.816;12.828;2023-05-03T04:19:33;98829.91;;;5.58;100.00
30081;BME280;16902;50.816;12.828;2023-05-03T04:24:36;98828.16;;;5.58;100.00
30081;BME280;16902;50.816;12.828;2023-05-03T04:29:42;98831.56;;;5.59;100.00
30081;BME280;16902;50.816;12.828;2023-05-03T04:34:45;98847.06;;;5.59;100.00
30081;BME280;16902;50.816;12.828;2023-05-03T04:39:51;98842.94;;;5.67;100.00
30081;BME280;16902;50.816;12.828;2023-05-03T04:44:54;98846.78;;;5.73;100.00
30081;BME280;16902;50.816;12.828;2023-05-03T04:49:56;98855.06;;;5.88;100.00
30081;BME280;16902;50.816;12.828;2023-05-03T04:54:58;98850.50;;;5.91;100.00
30081;BME280;16902;50.816;12.828;2023-05-03T05:00:00;98858.72;;;5.97;100.00
30081;BME280;16902;50.816;12.828;2023-05-03T05:05:03;98866.56;;;6.27;100.00
30081;BME280;16902;50.816;12.828;2023-05-03T05:10:07;98867.34;;;6.39;100.00
30081;BME280;16902;50.816;12.828;2023-05-03T05:15:09;98871.56;;;6.40;100.00
30081;BME280;16902;50.816;12.828;2023-05-03T05:20:13;98878.50;;;6.60;100.00
30081;BME280;16902;50.816;12.828;2023-05-03T05:25:20;98880.28;;;6.60;100.00
30081;BME280;16902;50.816;12.828;2023-05-03T05:30:23;98879.56;;;6.79;100.00
30081;BME280;16902;50.816;12.828;2023-05-03T05:35:25;98882.81;;;7.02;100.00
30081;BME280;16902;50.816;12.828;2023-05-03T05:40:28;98888.53;;;6.54;100.00
30081;BME280;16902;50.816;12.828;2023-05-03T05:45:31;98884.38;;;6.83;100.00
30081;BME280;16902;50.816;12.828;2023-05-03T05:50:36;98890.66;;;6.90;100.00
30081;BME280;16902;50.816;12.828;2023-05-03T05:55:42;98898.09;;;7.05;100.00
30081;BME280;16902;50.816;12.828;2023-05-03T06:00:45;98904.41;;;7.12;100.00
30081;BME280;16902;50.816;12.828;2023-05-03T06:05:50;98905.06;;;7.14;100.00
30081;BME280;16902;50.816;12.828;2023-05-03T06:10:54;98905.38;;;6.69;100.00
30081;BME280;16902;50.816;12.828;2023-05-03T06:15:57;98900.78;;;6.73;100.00
30081;BME280;16902;50.816;12.828;2023-05-03T06:20:59;98904.03;;;6.95;100.00
30081;BME280;16902;50.816;12.828;2023-05-03T06:26:01;98899.25;;;6.70;100.00
30081;BME280;16902;50.816;12.828;2023-05-03T06:31:03;98906.16;;;6.60;100.00
30081;BME280;16902;50.816;12.828;2023-05-03T06:36:06;98906.81;;;6.62;100.00
30081;BME280;16902;50.816;12.828;2023-05-03T06:41:10;98902.31;;;6.54;100.00
30081;BME280;16902;50.816;12.828;2023-05-03T06:46:12;98904.38;;;6.60;100.00
30081;BME280;16902;50.816;12.828;2023-05-03T06:51:14;98908.03;;;6.79;100.00
30081;BME280;16902;50.816;12.828;2023-05-03T06:56:16;98911.31;;;6.81;100.00
30081;BME280;16902;50.816;12.828;2023-05-03T07:01:18;98907.63;;;7.04;100.00
30081;BME280;16902;50.816;12.828;2023-05-03T07:06:21;98903.59;;;6.90;100.00
30081;BME280;16902;50.816;12.828;2023-05-03T07:11:26;98899.78;;;6.64;100.00
30081;BME280;16902;50.816;12.828;2023-05-03T07:16:27;98898.06;;;6.74;100.00
30081;BME280;16902;50.816;12.828;2023-05-03T07:21:29;98907.63;;;7.04;100.00
30081;BME280;16902;50.816;12.828;2023-05-03T07:26:33;98903.25;;;7.05;100.00
30081;BME280;16902;50.816;12.828;2023-05-03T07:31:35;98907.13;;;7.51;100.00
30081;BME280;16902;50.816;12.828;2023-05-03T07:36:38;98893.41;;;7.60;100.00
30081;BME280;16902;50.816;12.828;2023-05-03T07:41:40;98890.13;;;7.77;100.00
30081;BME280;16902;50.816;12.828;2023-05-03T07:46:41;98894.53;;;7.36;100.00
30081;BME280;16902;50.816;12.828;2023-05-03T07:51:43;98895.47;;;7.26;100.00
30081;BME280;16902;50.816;12.828;2023-05-03T07:56:45;98894.00;;;8.31;100.00
30081;BME280;16902;50.816;12.828;2023-05-03T08:01:47;98885.63;;;8.86;100.00
30081;BME280;16902;50.816;12.828;2023-05-03T08:06:49;98895.44;;;9.57;100.00
30081;BME280;16902;50.816;12.828;2023-05-03T08:11:51;98894.19;;;9.61;100.00
30081;BME280;16902;50.816;12.828;2023-05-03T08:16:54;98888.66;;;9.73;100.00
30081;BME280;16902;50.816;12.828;2023-05-03T08:21:56;98901.75;;;10.17;100.00
30081;BME280;16902;50.816;12.828;2023-05-03T08:26:58;98891.78;;;10.66;100.00
30081;BME280;16902;50.816;12.828;2023-05-03T08:32:00;98887.94;;;10.35;100.00
30081;BME280;16902;50.816;12.828;2023-05-03T08:37:02;98893.28;;;9.52;100.00
30081;BME280;16902;50.816;12.828;2023-05-03T08:42:08;98895.09;;;8.67;100.00
30081;BME280;16902;50.816;12.828;2023-05-03T08:47:13;98892.78;;;8.55;100.00
30081;BME280;16902;50.816;12.828;2023-05-03T08:52:15;98891.13;;;8.34;100.00
30081;BME280;16902;50.816;12.828;2023-05-03T08:57:20;98883.66;;;9.35;100.00
30081;BME280;16902;50.816;12.828;2023-05-03T09:02:24;98887.25;;;10.15;100.00
30081;BME280;16902;50.816;12.828;2023-05-03T09:07:26;98881.75;;;10.53;100.00
30081;BME280;16902;50.816;12.828;2023-05-03T09:12:37;98876.75;;;10.60;100.00
30081;BME280;16902;50.816;12.828;2023-05-03T09:17:41;98880.28;;;10.33;100.00
30081;BME280;16902;50.816;12.828;2023-05-03T09:22:49;98883.97;;;10.48;100.00
30081;BME280;16902;50.816;12.828;2023-05-03T09:27:59;98881.56;;;10.73;100.00
30081;BME280;16902;50.816;12.828;2023-05-03T09:33:02;98883.94;;;10.40;100.00
30081;BME280;16902;50.816;12.828;2023-05-03T09:38:05;98882.31;;;10.91;100.00
30081;BME280;16902;50.816;12.828;2023-05-03T09:43:09;98869.88;;;11.11;100.00
30081;BME280;16902;50.816;12.828;2023-05-03T09:48:12;98870.81;;;11.02;100.00
30081;BME280;16902;50.816;12.828;2023-05-03T09:53:14;98873.53;;;11.26;100.00
30081;BME280;16902;50.816;12.828;2023-05-03T09:58:21;98873.56;;;11.77;100.00
30081;BME280;16902;50.816;12.828;2023-05-03T10:03:32;98863.66;;;11.97;100.00
30081;BME280;16902;50.816;12.828;2023-05-03T10:08:47;98860.56;;;12.18;100.00
30081;BME280;16902;50.816;12.828;2023-05-03T10:13:50;98862.84;;;11.46;100.00
30081;BME280;16902;50.816;12.828;2023-05-03T10:19:03;98850.28;;;12.65;100.00
30081;BME280;16902;50.816;12.828;2023-05-03T10:24:11;98847.47;;;12.75;100.00
30081;BME280;16902;50.816;12.828;2023-05-03T10:34:35;98849.34;;;13.53;100.00
30081;BME280;16902;50.816;12.828;2023-05-03T10:39:43;98832.84;;;13.05;100.00
30081;BME280;16902;50.816;12.828;2023-05-03T10:44:53;98834.22;;;12.93;100.00
30081;BME280;16902;50.816;12.828;2023-05-03T10:55:18;98834.84;;;13.96;100.00
30081;BME280;16902;50.816;12.828;2023-05-03T11:00:23;98830.16;;;13.69;100.00
30081;BME280;16902;50.816;12.828;2023-05-03T11:05:26;98832.41;;;13.95;100.00
30081;BME280;16902;50.816;12.828;2023-05-03T11:10:29;98833.75;;;18.32;100.00
30081;BME280;16902;50.816;12.828;2023-05-03T11:15:31;98835.75;;;18.90;76.43
30081;BME280;16902;50.816;12.828;2023-05-03T11:20:37;98848.16;;;20.92;61.15
30081;BME280;16902;50.816;12.828;2023-05-03T11:25:39;98845.38;;;22.68;54.53
30081;BME280;16902;50.816;12.828;2023-05-03T11:30:45;98845.25;;;19.69;58.32
30081;BME280;16902;50.816;12.828;2023-05-03T11:35:47;98839.28;;;21.72;55.13
30081;BME280;16902;50.816;12.828;2023-05-03T11:40:49;98851.22;;;24.14;42.82
30081;BME280;16902;50.816;12.828;2023-05-03T11:45:53;98837.44;;;25.28;42.27
30081;BME280;16902;50.816;12.828;2023-05-03T11:50:57;98837.16;;;23.04;47.54
30081;BME280;16902;50.816;12.828;2023-05-03T11:55:59;98842.41;;;23.28;46.30
30081;BME280;16902;50.816;12.828;2023-05-03T12:01:02;98841.28;;;24.77;42.78
30081;BME280;16902;50.816;12.828;2023-05-03T12:06:04;98842.81;;;21.36;50.87
30081;BME280;16902;50.816;12.828;2023-05-03T12:11:07;98849.88;;;22.91;50.03
30081;BME280;16902;50.816;12.828;2023-05-03T12:16:10;98844.38;;;26.05;40.12
30081;BME280;16902;50.816;12.828;2023-05-03T12:21:17;98839.78;;;28.01;35.75
30081;BME280;16902;50.816;12.828;2023-05-03T12:26:23;98829.56;;;29.59;35.99
30081;BME280;16902;50.816;12.828;2023-05-03T12:31:26;98816.88;;;25.73;38.18
30081;BME280;16902;50.816;12.828;2023-05-03T12:36:30;98818.94;;;23.94;40.20
30081;BME280;16902;50.816;12.828;2023-05-03T12:41:38;98820.13;;;27.39;35.80
30081;BME280;16902;50.816;12.828;2023-05-03T12:47:00;98814.47;;;27.30;35.98
30081;BME280;16902;50.816;12.828;2023-05-03T12:52:02;98820.28;;;26.27;36.75
30081;BME280;16902;50.816;12.828;2023-05-03T12:57:24;98813.72;;;25.54;40.36
30081;BME280;16902;50.816;12.828;2023-05-03T13:02:31;98823.00;;;30.10;33.36
30081;BME280;16902;50.816;12.828;2023-05-03T13:07:36;98814.94;;;30.15;32.93
30081;BME280;16902;50.816;12.828;2023-05-03T13:12:44;98812.50;;;32.46;32.06
30081;BME280;16902;50.816;12.828;2023-05-03T13:17:46;98795.31;;;26.44;35.95
30081;BME280;16902;50.816;12.828;2023-05-03T13:22:51;98796.63;;;25.28;37.28
30081;BME280;16902;50.816;12.828;2023-05-03T13:27:53;98784.72;;;26.59;35.38
30081;BME280;16902;50.816;12.828;2023-05-03T13:32:55;98780.22;;;24.92;37.19
30081;BME280;16902;50.816;12.828;2023-05-03T13:37:57;98787.38;;;23.69;44.48
30081;BME280;16902;50.816;12.828;2023-05-03T13:42:59;98786.53;;;30.04;32.92
30081;BME280;16902;50.816;12.828;2023-05-03T13:48:01;98786.25;;;27.90;33.17
30081;BME280;16902;50.816;12.828;2023-05-03T13:53:19;98771.91;;;30.73;30.33
30081;BME280;16902;50.816;12.828;2023-05-03T13:58:21;98766.72;;;28.05;32.32
30081;BME280;16902;50.816;12.828;2023-05-03T14:03:23;98764.75;;;28.62;32.29
30081;BME280;16902;50.816;12.828;2023-05-03T14:08:25;98752.09;;;30.11;32.29
30081;BME280;16902;50.816;12.828;2023-05-03T14:13:27;98753.22;;;27.24;34.09
30081;BME280;16902;50.816;12.828;2023-05-03T14:18:37;98752.97;;;26.25;34.83
30081;BME280;16902;50.816;12.828;2023-05-03T14:23:40;98742.34;;;30.20;31.28
30081;BME280;16902;50.816;12.828;2023-05-03T14:28:42;98739.13;;;22.91;40.67
30081;BME280;16902;50.816;12.828;2023-05-03T14:33:44;98739.50;;;24.97;39.04
30081;BME280;16902;50.816;12.828;2023-05-03T14:38:46;98753.34;;;27.90;33.58
30081;BME280;16902;50.816;12.828;2023-05-03T14:43:48;98735.19;;;25.99;36.39
30081;BME280;16902;50.816;12.828;2023-05-03T14:48:50;98733.56;;;25.11;38.41
30081;BME280;16902;50.816;12.828;2023-05-03T14:53:52;98736.09;;;25.01;37.97
30081;BME280;16902;50.816;12.828;2023-05-03T14:58:54;98734.19;;;23.23;38.86
30081;BME280;16902;50.816;12.828;2023-05-03T15:03:56;98742.75;;;29.30;32.69
30081;BME280;16902;50.816;12.828;2023-05-03T15:08:58;98751.94;;;29.63;32.74
30081;BME280;16902;50.816;12.828;2023-05-03T15:14:00;98741.00;;;26.28;35.25
30081;BME280;16902;50.816;12.828;2023-05-03T15:19:02;98738.00;;;27.29;35.13
30081;BME280;16902;50.816;12.828;2023-05-03T15:24:04;98735.09;;;28.12;31.72
30081;BME280;16902;50.816;12.828;2023-05-03T15:29:06;98724.66;;;26.67;33.86
30081;BME280;16902;50.816;12.828;2023-05-03T15:34:08;98717.84;;;23.60;40.13
30081;BME280;16902;50.816;12.828;2023-05-03T15:39:11;98717.19;;;24.37;40.16
30081;BME280;16902;50.816;12.828;2023-05-03T15:44:13;98712.81;;;22.90;41.10
30081;BME280;16902;50.816;12.828;2023-05-03T15:49:16;98702.56;;;18.34;60.89
30081;BME280;16902;50.816;12.828;2023-05-03T15:54:18;98707.97;;;16.31;78.76
30081;BME280;16902;50.816;12.828;2023-05-03T15:59:20;98707.38;;;13.97;97.59
30081;BME280;16902;50.816;12.828;2023-05-03T16:04:22;98705.91;;;14.47;85.01
30081;BME280;16902;50.816;12.828;2023-05-03T16:09:25;98701.47;;;14.18;99.28
30081;BME280;16902;50.816;12.828;2023-05-03T16:14:29;98706.50;;;13.67;100.00
30081;BME280;16902;50.816;12.828;2023-05-03T16:19:31;98690.66;;;13.45;98.50
30081;BME280;16902;50.816;12.828;2023-05-03T16:24:33;98683.53;;;13.00;100.00
30081;BME280;16902;50.816;12.828;2023-05-03T16:29:35;98677.00;;;12.73;100.00
30081;BME280;16902;50.816;12.828;2023-05-03T16:34:38;98675.59;;;12.62;100.00
30081;BME280;16902;50.816;12.828;2023-05-03T16:39:40;98659.56;;;12.18;100.00
30081;BME280;16902;50.816;12.828;2023-05-03T16:44:41;98663.22;;;12.00;100.00
30081;BME280;16902;50.816;12.828;2023-05-03T16:49:43;98664.66;;;12.03;100.00
30081;BME280;16902;50.816;12.828;2023-05-03T16:54:45;98651.47;;;11.96;100.00
30081;BME280;16902;50.816;12.828;2023-05-03T16:59:47;98657.81;;;11.69;100.00
30081;BME280;16902;50.816;12.828;2023-05-03T17:04:49;98658.00;;;11.59;100.00
30081;BME280;16902;50.816;12.828;2023-05-03T17:09:51;98649.06;;;11.38;100.00
30081;BME280;16902;50.816;12.828;2023-05-03T17:14:53;98654.41;;;11.36;100.00
30081;BME280;16902;50.816;12.828;2023-05-03T17:19:55;98651.16;;;11.34;100.00
30081;BME280;16902;50.816;12.828;2023-05-03T17:24:57;98660.78;;;11.17;100.00
30081;BME280;16902;50.816;12.828;2023-05-03T17:30:00;98659.59;;;11.03;100.00
30081;BME280;16902;50.816;12.828;2023-05-03T17:35:02;98662.19;;;10.95;100.00
30081;BME280;16902;50.816;12.828;2023-05-03T17:40:04;98661.34;;;10.78;100.00
30081;BME280;16902;50.816;12.828;2023-05-03T17:45:10;98659.00;;;10.67;100.00
30081;BME280;16902;50.816;12.828;2023-05-03T17:50:12;98658.66;;;10.54;100.00
30081;BME280;16902;50.816;12.828;2023-05-03T17:55:14;98661.41;;;10.44;100.00
30081;BME280;16902;50.816;12.828;2023-05-03T18:00:19;98671.06;;;10.26;100.00
30081;BME280;16902;50.816;12.828;2023-05-03T18:05:22;98676.47;;;10.15;100.00
30081;BME280;16902;50.816;12.828;2023-05-03T18:10:24;98677.03;;;10.00;100.00
30081;BME280;16902;50.816;12.828;2023-05-03T18:15:26;98675.84;;;9.87;100.00
30081;BME280;16902;50.816;12.828;2023-05-03T18:20:28;98675.34;;;9.65;100.00
30081;BME280;16902;50.816;12.828;2023-05-03T18:25:30;98681.97;;;9.42;100.00
30081;BME280;16902;50.816;12.828;2023-05-03T18:30:32;98681.91;;;9.16;100.00
30081;BME280;16902;50.816;12.828;2023-05-03T18:35:34;98687.03;;;8.90;100.00
30081;BME280;16902;50.816;12.828;2023-05-03T18:40:35;98677.56;;;8.71;100.00
30081;BME280;16902;50.816;12.828;2023-05-03T18:45:38;98687.63;;;8.56;100.00
30081;BME280;16902;50.816;12.828;2023-05-03T18:50:40;98687.94;;;8.34;100.00
30081;BME280;16902;50.816;12.828;2023-05-03T18:55:44;98687.59;;;8.19;100.00
30081;BME280;16902;50.816;12.828;2023-05-03T19:00:46;98697.06;;;7.91;100.00
30081;BME280;16902;50.816;12.828;2023-05-03T19:05:48;98698.31;;;7.67;100.00
30081;BME280;16902;50.816;12.828;2023-05-03T19:10:50;98701.34;;;7.53;100.00
30081;BME280;16902;50.816;12.828;2023-05-03T19:15:52;98715.81;;;7.36;100.00
30081;BME280;16902;50.816;12.828;2023-05-03T19:20:54;98708.97;;;7.16;100.00
30081;BME280;16902;50.816;12.828;2023-05-03T19:25:57;98704.59;;;6.97;100.00
30081;BME280;16902;50.816;12.828;2023-05-03T19:31:05;98707.81;;;6.80;100.00
30081;BME280;16902;50.816;12.828;2023-05-03T19:36:11;98703.38;;;6.61;100.00
30081;BME280;16902;50.816;12.828;2023-05-03T19:41:13;98711.53;;;6.56;100.00
30081;BME280;16902;50.816;12.828;2023-05-03T19:46:18;98706.06;;;6.50;100.00
30081;BME280;16902;50.816;12.828;2023-05-03T19:51:20;98708.44;;;6.32;100.00
30081;BME280;16902;50.816;12.828;2023-05-03T19:56:23;98716.09;;;6.12;100.00
30081;BME280;16902;50.816;12.828;2023-05-03T20:01:25;98719.59;;;6.02;100.00
30081;BME280;16902;50.816;12.828;2023-05-03T20:06:28;98714.47;;;5.90;100.00
30081;BME280;16902;50.816;12.828;2023-05-03T20:11:29;98709.72;;;5.75;100.00
30081;BME280;16902;50.816;12.828;2023-05-03T20:16:32;98716.47;;;5.66;100.00
30081;BME280;16902;50.816;12.828;2023-05-03T20:21:39;98711.47;;;5.53;100.00
30081;BME280;16902;50.816;12.828;2023-05-03T20:26:41;98708.94;;;5.42;100.00
30081;BME280;16902;50.816;12.828;2023-05-03T20:31:43;98703.56;;;5.34;100.00
30081;BME280;16902;50.816;12.828;2023-05-03T20:36:50;98713.94;;;5.23;100.00
30081;BME280;16902;50.816;12.828;2023-05-03T20:41:52;98711.72;;;5.18;100.00
30081;BME280;16902;50.816;12.828;2023-05-03T20:46:53;98704.72;;;5.09;100.00
30081;BME280;16902;50.816;12.828;2023-05-03T20:51:55;98689.38;;;4.96;100.00
30081;BME280;16902;50.816;12.828;2023-05-03T20:56:57;98693.06;;;4.71;100.00
30081;BME280;16902;50.816;12.828;2023-05-03T21:02:00;98683.44;;;4.62;100.00
30081;BME280;16902;50.816;12.828;2023-05-03T21:07:02;98683.22;;;4.54;100.00
30081;BME280;16902;50.816;12.828;2023-05-03T21:12:04;98682.28;;;4.44;100.00
30081;BME280;16902;50.816;12.828;2023-05-03T21:17:06;98681.00;;;4.38;100.00
30081;BME280;16902;50.816;12.828;2023-05-03T21:22:09;98693.91;;;4.27;100.00
30081;BME280;16902;50.816;12.828;2023-05-03T21:27:12;98688.25;;;4.10;100.00
30081;BME280;16902;50.816;12.828;2023-05-03T21:32:14;98681.59;;;4.08;100.00
30081;BME280;16902;50.816;12.828;2023-05-03T21:37:15;98688.84;;;3.92;100.00
30081;BME280;16902;50.816;12.828;2023-05-03T21:42:17;98682.72;;;3.81;100.00
30081;BME280;16902;50.816;12.828;2023-05-03T21:47:19;98675.44;;;3.75;100.00
30081;BME280;16902;50.816;12.828;2023-05-03T21:52:21;98675.44;;;3.64;100.00
30081;BME280;16902;50.816;12.828;2023-05-03T21:57:27;98677.88;;;3.54;100.00
30081;BME280;16902;50.816;12.828;2023-05-03T22:02:28;98680.31;;;3.56;100.00
30081;BME280;16902;50.816;12.828;2023-05-03T22:07:30;98671.50;;;3.47;100.00
30081;BME280;16902;50.816;12.828;2023-05-03T22:12:32;98668.53;;;3.29;100.00
30081;BME280;16902;50.816;12.828;2023-05-03T22:17:35;98669.22;;;3.20;100.00
30081;BME280;16902;50.816;12.828;2023-05-03T22:22:37;98666.22;;;3.14;100.00
30081;BME280;16902;50.816;12.828;2023-05-03T22:27:38;98664.00;;;3.09;100.00
30081;BME280;16902;50.816;12.828;2023-05-03T22:32:40;98669.69;;;3.01;100.00
30081;BME280;16902;50.816;12.828;2023-05-03T22:37:42;98675.28;;;2.95;100.00
30081;BME280;16902;50.816;12.828;2023-05-03T22:42:44;98676.63;;;2.88;100.00
30081;BME280;16902;50.816;12.828;2023-05-03T22:47:46;98665.75;;;2.84;100.00
30081;BME280;16902;50.816;12.828;2023-05-03T22:52:48;98668.56;;;2.81;100.00
30081;BME280;16902;50.816;12.828;2023-05-03T22:57:50;98663.81;;;2.75;100.00
30081;BME280;16902;50.816;12.828;2023-05-03T23:02:52;98653.97;;;2.69;100.00
30081;BME280;16902;50.816;12.828;2023-05-03T23:07:54;98661.44;;;2.61;100.00
30081;BME280;16902;50.816;12.828;2023-05-03T23:12:56;98652.28;;;2.57;100.00
30081;BME280;16902;50.816;12.828;2023-05-03T23:17:58;98651.53;;;2.55;100.00
30081;BME280;16902;50.816;12.828;2023-05-03T23:23:00;98653.41;;;2.53;100.00
30081;BME280;16902;50.816;12.828;2023-05-03T23:28:01;98653.84;;;2.47;100.00
30081;BME280;16902;50.816;12.828;2023-05-03T23:33:03;98642.47;;;2.38;100.00
30081;BME280;16902;50.816;12.828;2023-05-03T23:38:05;98639.78;;;2.27;100.00
30081;BME280;16902;50.816;12.828;2023-05-03T23:43:07;98646.28;;;2.20;100.00
30081;BME280;16902;50.816;12.828;2023-05-03T23:48:09;98645.16;;;2.11;100.00
30081;BME280;16902;50.816;12.828;2023-05-03T23:53:11;98636.84;;;2.08;100.00
30081;BME280;16902;50.816;12.828;2023-05-03T23:58:13;98624.84;;;2.08;100.00
